sensor_id;sensor_type;location;lat;lon;timestamp;temperature;humidity
1337;DHT22;662;48.814;9.318;2023-05-07T00:01:49;18.00;58.00
1337;DHT22;662;48.814;9.318;2023-05-07T00:04:14;17.90;57.90
1337;DHT22;662;48.814;9.318;2023-05-07T00:06:40;17.90;57.90
1337;DHT22;662;48.814;9.318;2023-05-07T00:09:06;17.90;58.00
1337;DHT22;662;48.814;9.318;2023-05-07T00:11:33;17.90;58.10
1337;DHT22;662;48.814;9.318;2023-05-07T00:13:58;17.90;58.20
1337;DHT22;662;48.814;9.318;2023-05-07T00:16:24;17.90;58.40
1337;DHT22;662;48.814;9.318;2023-05-07T00:18:50;17.90;58.40
1337;DHT22;662;48.814;9.318;2023-05-07T00:21:16;17.90;58.40
1337;DHT22;662;48.814;9.318;2023-05-07T00:23:41;17.80;58.40
1337;DHT22;662;48.814;9.318;2023-05-07T00:26:07;17.80;58.40
1337;DHT22;662;48.814;9.318;2023-05-07T00:28:32;17.80;58.40
1337;DHT22;662;48.814;9.318;2023-05-07T00:30:58;17.80;58.50
1337;DHT22;662;48.814;9.318;2023-05-07T00:33:24;17.80;58.60
1337;DHT22;662;48.814;9.318;2023-05-07T00:35:52;17.70;58.60
1337;DHT22;662;48.814;9.318;2023-05-07T00:38:19;17.70;58.70
1337;DHT22;662;48.814;9.318;2023-05-07T00:40:45;17.70;59.00
1337;DHT22;662;48.814;9.318;2023-05-07T00:43:10;17.70;59.20
1337;DHT22;662;48.814;9.318;2023-05-07T00:45:38;17.70;59.30
1337;DHT22;662;48.814;9.318;2023-05-07T00:48:04;17.60;59.20
1337;DHT22;662;48.814;9.318;2023-05-07T00:50:31;17.60;59.20
1337;DHT22;662;48.814;9.318;2023-05-07T00:52:57;17.60;59.30
1337;DHT22;662;48.814;9.318;2023-05-07T00:55:24;17.50;59.30
1337;DHT22;662;48.814;9.318;2023-05-07T00:57:50;17.50;59.40
1337;DHT22;662;48.814;9.318;2023-05-07T01:00:16;17.50;59.50
1337;DHT22;662;48.814;9.318;2023-05-07T01:02:43;17.50;59.50
1337;DHT22;662;48.814;9.318;2023-05-07T01:05:12;17.50;59.50
1337;DHT22;662;48.814;9.318;2023-05-07T01:07:40;17.50;59.50
1337;DHT22;662;48.814;9.318;2023-05-07T01:10:06;17.40;59.50
1337;DHT22;662;48.814;9.318;2023-05-07T01:12:34;17.40;59.50
1337;DHT22;662;48.814;9.318;2023-05-07T01:15:01;17.40;59.70
1337;DHT22;662;48.814;9.318;2023-05-07T01:17:27;17.40;59.60
1337;DHT22;662;48.814;9.318;2023-05-07T01:19:53;17.30;59.60
1337;DHT22;662;48.814;9.318;2023-05-07T01:22:34;17.30;59.70
1337;DHT22;662;48.814;9.318;2023-05-07T01:25:02;17.30;59.80
1337;DHT22;662;48.814;9.318;2023-05-07T01:27:28;17.30;59.80
1337;DHT22;662;48.814;9.318;2023-05-07T01:29:54;17.20;59.80
1337;DHT22;662;48.814;9.318;2023-05-07T01:32:29;17.20;59.80
1337;DHT22;662;48.814;9.318;2023-05-07T01:34:58;17.20;59.80
1337;DHT22;662;48.814;9.318;2023-05-07T01:37:25;17.20;60.00
1337;DHT22;662;48.814;9.318;2023-05-07T01:39:52;17.10;60.10
1337;DHT22;662;48.814;9.318;2023-05-07T01:42:18;17.10;60.20
1337;DHT22;662;48.814;9.318;2023-05-07T01:44:44;17.10;60.20
1337;DHT22;662;48.814;9.318;2023-05-07T01:47:09;17.10;60.20
1337;DHT22;662;48.814;9.318;2023-05-07T01:49:35;17.10;60.40
1337;DHT22;662;48.814;9.318;2023-05-07T01:52:02;17.10;60.50
1337;DHT22;662;48.814;9.318;2023-05-07T01:54:28;17.10;60.60
1337;DHT22;662;48.814;9.318;2023-05-07T01:56:55;17.00;60.40
1337;DHT22;662;48.814;9.318;2023-05-07T01:59:21;17.00;60.30
1337;DHT22;662;48.814;9.318;2023-05-07T02:01:47;17.10;61.10
1337;DHT22;662;48.814;9.318;2023-05-07T02:04:13;17.00;60.30
1337;DHT22;662;48.814;9.318;2023-05-07T02:06:38;17.00;60.30
1337;DHT22;662;48.814;9.318;2023-05-07T02:09:04;17.00;60.40
1337;DHT22;662;48.814;9.318;2023-05-07T02:11:30;17.00;60.50
1337;DHT22;662;48.814;9.318;2023-05-07T02:13:56;17.00;60.50
1337;DHT22;662;48.814;9.318;2023-05-07T02:16:21;17.00;60.40
1337;DHT22;662;48.814;9.318;2023-05-07T02:18:48;17.00;60.30
1337;DHT22;662;48.814;9.318;2023-05-07T02:21:14;17.00;60.30
1337;DHT22;662;48.814;9.318;2023-05-07T02:23:40;17.00;60.40
1337;DHT22;662;48.814;9.318;2023-05-07T02:26:05;16.90;60.40
1337;DHT22;662;48.814;9.318;2023-05-07T02:28:31;16.90;60.60
1337;DHT22;662;48.814;9.318;2023-05-07T02:30:57;16.90;60.60
1337;DHT22;662;48.814;9.318;2023-05-07T02:33:23;16.80;60.60
1337;DHT22;662;48.814;9.318;2023-05-07T02:35:50;16.80;60.70
1337;DHT22;662;48.814;9.318;2023-05-07T02:38:17;16.80;60.80
1337;DHT22;662;48.814;9.318;2023-05-07T02:40:43;16.80;60.90
1337;DHT22;662;48.814;9.318;2023-05-07T02:43:09;16.70;60.80
1337;DHT22;662;48.814;9.318;2023-05-07T02:45:34;16.70;61.60
1337;DHT22;662;48.814;9.318;2023-05-07T02:48:01;16.70;61.00
1337;DHT22;662;48.814;9.318;2023-05-07T02:50:27;16.70;61.10
1337;DHT22;662;48.814;9.318;2023-05-07T02:52:52;16.70;61.20
1337;DHT22;662;48.814;9.318;2023-05-07T02:55:18;16.60;61.10
1337;DHT22;662;48.814;9.318;2023-05-07T02:57:44;16.60;61.20
1337;DHT22;662;48.814;9.318;2023-05-07T03:00:14;16.60;61.30
1337;DHT22;662;48.814;9.318;2023-05-07T03:02:40;16.60;61.40
1337;DHT22;662;48.814;9.318;2023-05-07T03:05:06;16.60;61.50
1337;DHT22;662;48.814;9.318;2023-05-07T03:07:32;16.60;61.50
1337;DHT22;662;48.814;9.318;2023-05-07T03:09:58;16.50;61.40
1337;DHT22;662;48.814;9.318;2023-05-07T03:12:24;16.60;61.50
1337;DHT22;662;48.814;9.318;2023-05-07T03:14:49;16.50;61.50
1337;DHT22;662;48.814;9.318;2023-05-07T03:17:15;16.50;61.50
1337;DHT22;662;48.814;9.318;2023-05-07T03:19:41;16.40;61.50
1337;DHT22;662;48.814;9.318;2023-05-07T03:22:07;16.40;61.60
1337;DHT22;662;48.814;9.318;2023-05-07T03:24:32;16.40;62.40
1337;DHT22;662;48.814;9.318;2023-05-07T03:26:58;16.30;61.70
1337;DHT22;662;48.814;9.318;2023-05-07T03:29:24;16.30;61.80
1337;DHT22;662;48.814;9.318;2023-05-07T03:31:49;16.30;61.90
1337;DHT22;662;48.814;9.318;2023-05-07T03:34:15;16.30;62.00
1337;DHT22;662;48.814;9.318;2023-05-07T03:36:42;16.30;62.10
1337;DHT22;662;48.814;9.318;2023-05-07T03:39:08;16.30;62.20
1337;DHT22;662;48.814;9.318;2023-05-07T03:41:33;16.20;62.10
1337;DHT22;662;48.814;9.318;2023-05-07T03:43:59;16.20;62.10
1337;DHT22;662;48.814;9.318;2023-05-07T03:46:24;16.20;62.20
1337;DHT22;662;48.814;9.318;2023-05-07T03:48:51;16.20;62.10
1337;DHT22;662;48.814;9.318;2023-05-07T03:51:17;16.20;62.10
1337;DHT22;662;48.814;9.318;2023-05-07T03:53:43;16.10;62.00
1337;DHT22;662;48.814;9.318;2023-05-07T03:56:08;16.10;62.00
1337;DHT22;662;48.814;9.318;2023-05-07T03:58:34;16.10;62.10
1337;DHT22;662;48.814;9.318;2023-05-07T04:01:00;16.10;62.10
1337;DHT22;662;48.814;9.318;2023-05-07T04:03:26;16.10;62.20
1337;DHT22;662;48.814;9.318;2023-05-07T04:05:52;16.10;62.20
1337;DHT22;662;48.814;9.318;2023-05-07T04:08:17;16.10;62.40
1337;DHT22;662;48.814;9.318;2023-05-07T04:10:43;16.10;62.40
1337;DHT22;662;48.814;9.318;2023-05-07T04:13:08;16.10;62.50
1337;DHT22;662;48.814;9.318;2023-05-07T04:15:35;16.00;62.40
1337;DHT22;662;48.814;9.318;2023-05-07T04:18:01;16.10;62.50
1337;DHT22;662;48.814;9.318;2023-05-07T04:20:27;16.00;62.40
1337;DHT22;662;48.814;9.318;2023-05-07T04:22:52;16.00;62.30
1337;DHT22;662;48.814;9.318;2023-05-07T04:25:18;16.00;62.40
1337;DHT22;662;48.814;9.318;2023-05-07T04:27:43;16.00;62.40
1337;DHT22;662;48.814;9.318;2023-05-07T04:30:10;16.00;62.30
1337;DHT22;662;48.814;9.318;2023-05-07T04:32:35;16.00;62.40
1337;DHT22;662;48.814;9.318;2023-05-07T04:35:03;16.00;62.50
1337;DHT22;662;48.814;9.318;2023-05-07T04:37:28;16.00;62.60
1337;DHT22;662;48.814;9.318;2023-05-07T04:39:54;16.00;62.80
1337;DHT22;662;48.814;9.318;2023-05-07T04:42:20;16.00;62.80
1337;DHT22;662;48.814;9.318;2023-05-07T04:44:45;16.00;62.80
1337;DHT22;662;48.814;9.318;2023-05-07T04:47:11;16.00;62.70
1337;DHT22;662;48.814;9.318;2023-05-07T04:49:38;16.00;62.60
1337;DHT22;662;48.814;9.318;2023-05-07T04:52:04;16.10;62.70
1337;DHT22;662;48.814;9.318;2023-05-07T04:54:30;16.10;62.70
1337;DHT22;662;48.814;9.318;2023-05-07T04:56:55;16.10;62.70
1337;DHT22;662;48.814;9.318;2023-05-07T04:59:21;16.20;62.70
1337;DHT22;662;48.814;9.318;2023-05-07T05:01:47;16.20;62.80
1337;DHT22;662;48.814;9.318;2023-05-07T05:04:12;16.20;62.80
1337;DHT22;662;48.814;9.318;2023-05-07T05:06:38;16.20;62.80
1337;DHT22;662;48.814;9.318;2023-05-07T05:09:04;16.20;62.80
1337;DHT22;662;48.814;9.318;2023-05-07T05:11:31;16.20;62.80
1337;DHT22;662;48.814;9.318;2023-05-07T05:13:56;16.30;62.90
1337;DHT22;662;48.814;9.318;2023-05-07T05:16:22;16.30;62.80
1337;DHT22;662;48.814;9.318;2023-05-07T05:18:48;16.20;62.70
1337;DHT22;662;48.814;9.318;2023-05-07T05:21:13;16.20;62.60
1337;DHT22;662;48.814;9.318;2023-05-07T05:23:39;16.30;62.80
1337;DHT22;662;48.814;9.318;2023-05-07T05:26:04;16.20;62.70
1337;DHT22;662;48.814;9.318;2023-05-07T05:28:30;16.20;62.90
1337;DHT22;662;48.814;9.318;2023-05-07T05:30:56;16.20;62.90
1337;DHT22;662;48.814;9.318;2023-05-07T05:33:21;16.20;62.80
1337;DHT22;662;48.814;9.318;2023-05-07T05:35:47;16.20;62.70
1337;DHT22;662;48.814;9.318;2023-05-07T05:38:13;16.20;62.70
1337;DHT22;662;48.814;9.318;2023-05-07T05:40:39;16.20;62.80
1337;DHT22;662;48.814;9.318;2023-05-07T05:43:05;16.20;62.90
1337;DHT22;662;48.814;9.318;2023-05-07T05:45:31;16.30;63.20
1337;DHT22;662;48.814;9.318;2023-05-07T05:47:57;16.30;63.20
1337;DHT22;662;48.814;9.318;2023-05-07T05:50:22;16.30;63.10
1337;DHT22;662;48.814;9.318;2023-05-07T05:52:48;16.30;63.00
1337;DHT22;662;48.814;9.318;2023-05-07T05:55:14;16.40;63.20
1337;DHT22;662;48.814;9.318;2023-05-07T05:57:40;16.40;63.20
1337;DHT22;662;48.814;9.318;2023-05-07T06:00:06;16.50;63.10
1337;DHT22;662;48.814;9.318;2023-05-07T06:02:32;16.60;63.00
1337;DHT22;662;48.814;9.318;2023-05-07T06:04:58;16.70;62.70
1337;DHT22;662;48.814;9.318;2023-05-07T06:07:23;16.70;62.70
1337;DHT22;662;48.814;9.318;2023-05-07T06:09:49;16.80;62.60
1337;DHT22;662;48.814;9.318;2023-05-07T06:12:14;16.90;62.40
1337;DHT22;662;48.814;9.318;2023-05-07T06:14:42;17.00;62.20
1337;DHT22;662;48.814;9.318;2023-05-07T06:17:07;17.00;61.90
1337;DHT22;662;48.814;9.318;2023-05-07T06:19:33;17.10;61.80
1337;DHT22;662;48.814;9.318;2023-05-07T06:21:59;17.20;61.60
1337;DHT22;662;48.814;9.318;2023-05-07T06:24:26;17.30;61.60
1337;DHT22;662;48.814;9.318;2023-05-07T06:26:52;17.40;61.30
1337;DHT22;662;48.814;9.318;2023-05-07T06:29:18;17.50;61.20
1337;DHT22;662;48.814;9.318;2023-05-07T06:31:43;17.50;60.80
1337;DHT22;662;48.814;9.318;2023-05-07T06:34:09;17.60;60.90
1337;DHT22;662;48.814;9.318;2023-05-07T06:36:35;17.60;60.80
1337;DHT22;662;48.814;9.318;2023-05-07T06:39:01;17.60;60.70
1337;DHT22;662;48.814;9.318;2023-05-07T06:41:26;17.70;60.70
1337;DHT22;662;48.814;9.318;2023-05-07T06:43:52;17.70;60.50
1337;DHT22;662;48.814;9.318;2023-05-07T06:46:17;17.80;60.70
1337;DHT22;662;48.814;9.318;2023-05-07T06:48:43;17.80;60.50
1337;DHT22;662;48.814;9.318;2023-05-07T06:51:09;17.90;60.40
1337;DHT22;662;48.814;9.318;2023-05-07T06:53:35;17.90;60.20
1337;DHT22;662;48.814;9.318;2023-05-07T06:56:00;18.00;59.90
1337;DHT22;662;48.814;9.318;2023-05-07T06:58:26;18.10;59.70
1337;DHT22;662;48.814;9.318;2023-05-07T07:00:52;18.10;59.70
1337;DHT22;662;48.814;9.318;2023-05-07T07:03:17;18.20;59.70
1337;DHT22;662;48.814;9.318;2023-05-07T07:05:43;18.30;59.70
1337;DHT22;662;48.814;9.318;2023-05-07T07:08:09;18.40;59.50
1337;DHT22;662;48.814;9.318;2023-05-07T07:10:35;18.40;59.40
1337;DHT22;662;48.814;9.318;2023-05-07T07:13:01;18.50;59.30
1337;DHT22;662;48.814;9.318;2023-05-07T07:15:27;18.60;59.40
1337;DHT22;662;48.814;9.318;2023-05-07T07:17:52;18.70;59.40
1337;DHT22;662;48.814;9.318;2023-05-07T07:20:18;18.80;59.40
1337;DHT22;662;48.814;9.318;2023-05-07T07:22:44;18.90;59.30
1337;DHT22;662;48.814;9.318;2023-05-07T07:25:09;19.00;59.20
1337;DHT22;662;48.814;9.318;2023-05-07T07:27:36;19.10;59.00
1337;DHT22;662;48.814;9.318;2023-05-07T07:30:02;19.20;58.80
1337;DHT22;662;48.814;9.318;2023-05-07T07:32:28;19.30;58.20
1337;DHT22;662;48.814;9.318;2023-05-07T07:34:54;19.40;58.10
1337;DHT22;662;48.814;9.318;2023-05-07T07:37:20;19.50;58.00
1337;DHT22;662;48.814;9.318;2023-05-07T07:39:45;19.70;57.90
1337;DHT22;662;48.814;9.318;2023-05-07T07:42:11;19.70;57.30
1337;DHT22;662;48.814;9.318;2023-05-07T07:44:36;19.90;57.10
1337;DHT22;662;48.814;9.318;2023-05-07T07:47:02;20.00;56.90
1337;DHT22;662;48.814;9.318;2023-05-07T07:49:28;20.20;56.60
1337;DHT22;662;48.814;9.318;2023-05-07T07:51:53;20.30;56.20
1337;DHT22;662;48.814;9.318;2023-05-07T07:54:19;20.50;56.10
1337;DHT22;662;48.814;9.318;2023-05-07T07:56:44;20.70;56.00
1337;DHT22;662;48.814;9.318;2023-05-07T07:59:10;20.90;55.60
1337;DHT22;662;48.814;9.318;2023-05-07T08:01:36;21.10;55.40
1337;DHT22;662;48.814;9.318;2023-05-07T08:04:01;21.30;55.10
1337;DHT22;662;48.814;9.318;2023-05-07T08:06:28;21.50;54.60
1337;DHT22;662;48.814;9.318;2023-05-07T08:08:54;21.60;54.50
1337;DHT22;662;48.814;9.318;2023-05-07T08:11:20;21.80;54.40
1337;DHT22;662;48.814;9.318;2023-05-07T08:13:47;21.90;53.60
1337;DHT22;662;48.814;9.318;2023-05-07T08:16:13;22.10;53.60
1337;DHT22;662;48.814;9.318;2023-05-07T08:18:39;22.20;53.80
1337;DHT22;662;48.814;9.318;2023-05-07T08:21:05;22.40;53.30
1337;DHT22;662;48.814;9.318;2023-05-07T08:23:31;22.50;52.80
1337;DHT22;662;48.814;9.318;2023-05-07T08:25:57;22.50;52.40
1337;DHT22;662;48.814;9.318;2023-05-07T08:28:22;22.70;52.40
1337;DHT22;662;48.814;9.318;2023-05-07T08:30:50;22.70;52.30
1337;DHT22;662;48.814;9.318;2023-05-07T08:33:16;22.80;52.40
1337;DHT22;662;48.814;9.318;2023-05-07T08:35:41;23.00;52.50
1337;DHT22;662;48.814;9.318;2023-05-07T08:38:07;23.10;52.30
1337;DHT22;662;48.814;9.318;2023-05-07T08:40:37;23.20;52.00
1337;DHT22;662;48.814;9.318;2023-05-07T08:43:05;23.40;51.90
1337;DHT22;662;48.814;9.318;2023-05-07T08:45:33;23.50;51.70
1337;DHT22;662;48.814;9.318;2023-05-07T08:48:02;23.60;51.60
1337;DHT22;662;48.814;9.318;2023-05-07T08:50:29;23.70;51.30
1337;DHT22;662;48.814;9.318;2023-05-07T08:52:55;23.70;51.30
1337;DHT22;662;48.814;9.318;2023-05-07T08:55:22;23.80;51.40
1337;DHT22;662;48.814;9.318;2023-05-07T08:57:48;23.90;51.40
1337;DHT22;662;48.814;9.318;2023-05-07T09:00:14;23.90;51.30
1337;DHT22;662;48.814;9.318;2023-05-07T09:02:40;23.90;51.00
1337;DHT22;662;48.814;9.318;2023-05-07T09:05:06;23.90;50.40
1337;DHT22;662;48.814;9.318;2023-05-07T09:07:32;24.00;50.60
1337;DHT22;662;48.814;9.318;2023-05-07T09:09:57;24.10;50.40
1337;DHT22;662;48.814;9.318;2023-05-07T09:12:23;24.20;50.80
1337;DHT22;662;48.814;9.318;2023-05-07T09:14:49;24.30;50.50
1337;DHT22;662;48.814;9.318;2023-05-07T09:17:16;24.50;51.00
1337;DHT22;662;48.814;9.318;2023-05-07T09:19:44;24.70;50.90
1337;DHT22;662;48.814;9.318;2023-05-07T09:22:10;25.10;50.40
1337;DHT22;662;48.814;9.318;2023-05-07T09:24:37;25.40;49.60
1337;DHT22;662;48.814;9.318;2023-05-07T09:27:07;25.70;48.90
1337;DHT22;662;48.814;9.318;2023-05-07T09:29:34;26.00;48.30
1337;DHT22;662;48.814;9.318;2023-05-07T09:32:05;26.30;47.40
1337;DHT22;662;48.814;9.318;2023-05-07T09:34:31;26.50;45.40
1337;DHT22;662;48.814;9.318;2023-05-07T09:37:01;26.40;45.20
1337;DHT22;662;48.814;9.318;2023-05-07T09:39:49;26.30;44.80
1337;DHT22;662;48.814;9.318;2023-05-07T09:42:15;26.40;45.70
1337;DHT22;662;48.814;9.318;2023-05-07T09:44:43;26.70;46.30
1337;DHT22;662;48.814;9.318;2023-05-07T09:47:08;27.00;45.50
1337;DHT22;662;48.814;9.318;2023-05-07T09:49:37;27.60;44.80
1337;DHT22;662;48.814;9.318;2023-05-07T09:52:04;28.70;44.10
1337;DHT22;662;48.814;9.318;2023-05-07T09:54:36;29.50;41.70
1337;DHT22;662;48.814;9.318;2023-05-07T09:57:04;29.50;39.90
1337;DHT22;662;48.814;9.318;2023-05-07T09:59:31;29.30;39.30
1337;DHT22;662;48.814;9.318;2023-05-07T10:01:59;29.60;39.80
1337;DHT22;662;48.814;9.318;2023-05-07T10:04:27;30.10;40.10
1337;DHT22;662;48.814;9.318;2023-05-07T10:06:54;30.60;39.10
1337;DHT22;662;48.814;9.318;2023-05-07T10:09:21;30.60;38.40
1337;DHT22;662;48.814;9.318;2023-05-07T10:11:49;30.90;38.10
1337;DHT22;662;48.814;9.318;2023-05-07T10:14:15;31.40;37.80
1337;DHT22;662;48.814;9.318;2023-05-07T10:16:41;32.00;36.80
1337;DHT22;662;48.814;9.318;2023-05-07T10:19:09;32.30;35.40
1337;DHT22;662;48.814;9.318;2023-05-07T10:21:42;32.40;34.70
1337;DHT22;662;48.814;9.318;2023-05-07T10:24:15;32.70;35.20
1337;DHT22;662;48.814;9.318;2023-05-07T10:26:43;33.10;34.50
1337;DHT22;662;48.814;9.318;2023-05-07T10:29:27;33.60;34.30
1337;DHT22;662;48.814;9.318;2023-05-07T10:34:34;34.40;32.40
1337;DHT22;662;48.814;9.318;2023-05-07T10:37:02;34.70;31.60
1337;DHT22;662;48.814;9.318;2023-05-07T10:39:28;34.70;31.40
1337;DHT22;662;48.814;9.318;2023-05-07T10:41:53;34.50;31.20
1337;DHT22;662;48.814;9.318;2023-05-07T10:44:26;34.50;31.30
1337;DHT22;662;48.814;9.318;2023-05-07T10:47:09;34.80;31.60
1337;DHT22;662;48.814;9.318;2023-05-07T10:52:23;35.30;29.60
1337;DHT22;662;48.814;9.318;2023-05-07T10:57:50;34.90;30.00
1337;DHT22;662;48.814;9.318;2023-05-07T11:05:31;35.30;29.40
1337;DHT22;662;48.814;9.318;2023-05-07T11:08:01;35.00;29.10
1337;DHT22;662;48.814;9.318;2023-05-07T11:10:48;34.60;30.00
1337;DHT22;662;48.814;9.318;2023-05-07T11:13:14;34.10;30.20
1337;DHT22;662;48.814;9.318;2023-05-07T11:15:47;33.50;30.90
1337;DHT22;662;48.814;9.318;2023-05-07T11:18:17;33.00;31.10
1337;DHT22;662;48.814;9.318;2023-05-07T11:20:55;32.60;32.00
1337;DHT22;662;48.814;9.318;2023-05-07T11:26:09;32.10;32.80
1337;DHT22;662;48.814;9.318;2023-05-07T11:28:43;31.70;33.50
1337;DHT22;662;48.814;9.318;2023-05-07T11:31:09;31.20;33.90
1337;DHT22;662;48.814;9.318;2023-05-07T11:33:36;30.70;34.70
1337;DHT22;662;48.814;9.318;2023-05-07T11:36:03;30.30;35.30
1337;DHT22;662;48.814;9.318;2023-05-07T11:38:38;29.80;35.80
1337;DHT22;662;48.814;9.318;2023-05-07T11:41:05;29.30;36.90
1337;DHT22;662;48.814;9.318;2023-05-07T11:43:31;29.00;37.80
1337;DHT22;662;48.814;9.318;2023-05-07T11:46:11;28.70;38.50
1337;DHT22;662;48.814;9.318;2023-05-07T11:48:37;28.50;38.70
1337;DHT22;662;48.814;9.318;2023-05-07T11:51:04;28.30;38.80
1337;DHT22;662;48.814;9.318;2023-05-07T11:53:38;28.20;39.20
1337;DHT22;662;48.814;9.318;2023-05-07T11:56:09;28.70;38.90
1337;DHT22;662;48.814;9.318;2023-05-07T11:58:35;29.10;38.70
1337;DHT22;662;48.814;9.318;2023-05-07T12:01:01;29.50;38.50
1337;DHT22;662;48.814;9.318;2023-05-07T12:03:27;29.60;37.40
1337;DHT22;662;48.814;9.318;2023-05-07T12:05:53;29.30;37.50
1337;DHT22;662;48.814;9.318;2023-05-07T12:08:20;28.90;37.90
1337;DHT22;662;48.814;9.318;2023-05-07T12:10:48;28.50;38.30
1337;DHT22;662;48.814;9.318;2023-05-07T12:13:15;28.10;38.90
1337;DHT22;662;48.814;9.318;2023-05-07T12:15:42;27.80;39.80
1337;DHT22;662;48.814;9.318;2023-05-07T12:18:08;27.50;40.30
1337;DHT22;662;48.814;9.318;2023-05-07T12:20:35;27.20;41.20
1337;DHT22;662;48.814;9.318;2023-05-07T12:23:02;26.90;41.20
1337;DHT22;662;48.814;9.318;2023-05-07T12:25:30;26.60;41.80
1337;DHT22;662;48.814;9.318;2023-05-07T12:27:57;26.40;42.00
1337;DHT22;662;48.814;9.318;2023-05-07T12:30:24;26.20;42.40
1337;DHT22;662;48.814;9.318;2023-05-07T12:32:54;26.00;42.70
1337;DHT22;662;48.814;9.318;2023-05-07T12:35:30;25.80;43.20
1337;DHT22;662;48.814;9.318;2023-05-07T12:37:59;25.60;43.50
1337;DHT22;662;48.814;9.318;2023-05-07T12:40:41;25.40;43.90
1337;DHT22;662;48.814;9.318;2023-05-07T12:43:08;25.30;44.60
1337;DHT22;662;48.814;9.318;2023-05-07T12:45:41;25.10;44.70
1337;DHT22;662;48.814;9.318;2023-05-07T12:48:09;24.90;45.30
1337;DHT22;662;48.814;9.318;2023-05-07T12:50:35;24.60;45.00
1337;DHT22;662;48.814;9.318;2023-05-07T12:53:03;24.40;43.30
1337;DHT22;662;48.814;9.318;2023-05-07T12:55:32;24.20;43.10
1337;DHT22;662;48.814;9.318;2023-05-07T12:58:00;24.00;43.20
1337;DHT22;662;48.814;9.318;2023-05-07T13:00:38;23.80;44.00
1337;DHT22;662;48.814;9.318;2023-05-07T13:03:04;23.70;45.30
1337;DHT22;662;48.814;9.318;2023-05-07T13:05:31;23.50;46.10
1337;DHT22;662;48.814;9.318;2023-05-07T13:07:57;23.40;46.90
1337;DHT22;662;48.814;9.318;2023-05-07T13:10:23;23.10;47.50
1337;DHT22;662;48.814;9.318;2023-05-07T13:12:50;22.90;48.20
1337;DHT22;662;48.814;9.318;2023-05-07T13:15:16;22.80;48.50
1337;DHT22;662;48.814;9.318;2023-05-07T13:17:41;22.70;48.80
1337;DHT22;662;48.814;9.318;2023-05-07T13:20:08;22.50;50.10
1337;DHT22;662;48.814;9.318;2023-05-07T13:22:34;22.20;52.30
1337;DHT22;662;48.814;9.318;2023-05-07T13:25:00;21.90;53.40
1337;DHT22;662;48.814;9.318;2023-05-07T13:27:25;21.50;54.80
1337;DHT22;662;48.814;9.318;2023-05-07T13:29:51;21.10;55.70
1337;DHT22;662;48.814;9.318;2023-05-07T13:32:17;20.80;56.00
1337;DHT22;662;48.814;9.318;2023-05-07T13:34:43;20.40;54.10
1337;DHT22;662;48.814;9.318;2023-05-07T13:37:08;20.10;53.40
1337;DHT22;662;48.814;9.318;2023-05-07T13:39:34;19.80;53.30
1337;DHT22;662;48.814;9.318;2023-05-07T13:42:00;19.60;54.10
1337;DHT22;662;48.814;9.318;2023-05-07T13:44:26;19.50;54.70
1337;DHT22;662;48.814;9.318;2023-05-07T13:46:52;19.50;51.60
1337;DHT22;662;48.814;9.318;2023-05-07T13:49:17;19.60;51.60
1337;DHT22;662;48.814;9.318;2023-05-07T13:51:43;19.60;52.20
1337;DHT22;662;48.814;9.318;2023-05-07T13:54:09;19.60;52.10
1337;DHT22;662;48.814;9.318;2023-05-07T13:56:34;19.70;51.90
1337;DHT22;662;48.814;9.318;2023-05-07T13:59:02;19.70;52.50
1337;DHT22;662;48.814;9.318;2023-05-07T14:01:27;19.70;53.80
1337;DHT22;662;48.814;9.318;2023-05-07T14:03:53;19.80;54.50
1337;DHT22;662;48.814;9.318;2023-05-07T14:06:19;19.80;55.20
1337;DHT22;662;48.814;9.318;2023-05-07T14:08:45;19.80;55.60
1337;DHT22;662;48.814;9.318;2023-05-07T14:11:10;19.80;56.00
1337;DHT22;662;48.814;9.318;2023-05-07T14:13:36;19.60;57.20
1337;DHT22;662;48.814;9.318;2023-05-07T14:16:02;19.50;58.80
1337;DHT22;662;48.814;9.318;2023-05-07T14:18:29;19.30;59.40
1337;DHT22;662;48.814;9.318;2023-05-07T14:20:55;19.10;59.70
1337;DHT22;662;48.814;9.318;2023-05-07T14:23:20;19.00;59.70
1337;DHT22;662;48.814;9.318;2023-05-07T14:25:52;18.80;60.00
1337;DHT22;662;48.814;9.318;2023-05-07T14:28:18;18.60;61.20
1337;DHT22;662;48.814;9.318;2023-05-07T14:30:44;18.50;63.00
1337;DHT22;662;48.814;9.318;2023-05-07T14:33:09;18.30;63.80
1337;DHT22;662;48.814;9.318;2023-05-07T14:35:35;18.20;64.80
1337;DHT22;662;48.814;9.318;2023-05-07T14:38:00;18.10;65.00
1337;DHT22;662;48.814;9.318;2023-05-07T14:40:27;18.10;65.70
1337;DHT22;662;48.814;9.318;2023-05-07T14:42:52;18.00;66.10
1337;DHT22;662;48.814;9.318;2023-05-07T14:45:18;18.00;66.50
1337;DHT22;662;48.814;9.318;2023-05-07T14:47:43;18.00;66.60
1337;DHT22;662;48.814;9.318;2023-05-07T14:50:09;18.10;67.50
1337;DHT22;662;48.814;9.318;2023-05-07T14:52:35;18.10;68.00
1337;DHT22;662;48.814;9.318;2023-05-07T14:55:01;18.20;68.50
1337;DHT22;662;48.814;9.318;2023-05-07T14:57:26;18.20;68.80
1337;DHT22;662;48.814;9.318;2023-05-07T14:59:52;18.30;68.90
1337;DHT22;662;48.814;9.318;2023-05-07T15:02:17;18.40;69.10
1337;DHT22;662;48.814;9.318;2023-05-07T15:04:43;18.40;69.90
1337;DHT22;662;48.814;9.318;2023-05-07T15:07:15;18.40;70.30
1337;DHT22;662;48.814;9.318;2023-05-07T15:09:42;18.50;69.30
1337;DHT22;662;48.814;9.318;2023-05-07T15:12:07;18.50;65.30
1337;DHT22;662;48.814;9.318;2023-05-07T15:14:34;18.60;61.40
1337;DHT22;662;48.814;9.318;2023-05-07T15:17:00;18.60;62.30
1337;DHT22;662;48.814;9.318;2023-05-07T15:19:25;18.70;63.70
1337;DHT22;662;48.814;9.318;2023-05-07T15:21:56;18.70;64.60
1337;DHT22;662;48.814;9.318;2023-05-07T15:24:23;18.80;65.50
1337;DHT22;662;48.814;9.318;2023-05-07T15:26:49;18.80;66.20
1337;DHT22;662;48.814;9.318;2023-05-07T15:29:15;18.90;66.70
1337;DHT22;662;48.814;9.318;2023-05-07T15:31:40;18.90;67.50
1337;DHT22;662;48.814;9.318;2023-05-07T15:34:06;18.90;68.00
1337;DHT22;662;48.814;9.318;2023-05-07T15:36:32;19.00;68.60
1337;DHT22;662;48.814;9.318;2023-05-07T15:38:57;19.00;69.00
1337;DHT22;662;48.814;9.318;2023-05-07T15:41:24;19.00;69.30
1337;DHT22;662;48.814;9.318;2023-05-07T15:43:51;19.00;69.50
1337;DHT22;662;48.814;9.318;2023-05-07T15:46:21;19.00;69.20
1337;DHT22;662;48.814;9.318;2023-05-07T15:48:49;19.00;69.10
1337;DHT22;662;48.814;9.318;2023-05-07T15:51:15;19.10;69.10
1337;DHT22;662;48.814;9.318;2023-05-07T15:53:42;19.20;69.20
1337;DHT22;662;48.814;9.318;2023-05-07T15:56:08;19.20;69.10
1337;DHT22;662;48.814;9.318;2023-05-07T15:58:34;19.30;69.30
1337;DHT22;662;48.814;9.318;2023-05-07T16:01:04;19.40;69.00
1337;DHT22;662;48.814;9.318;2023-05-07T16:03:32;19.40;69.00
1337;DHT22;662;48.814;9.318;2023-05-07T16:05:58;19.50;69.70
1337;DHT22;662;48.814;9.318;2023-05-07T16:08:27;19.50;69.20
1337;DHT22;662;48.814;9.318;2023-05-07T16:10:52;19.40;69.30
1337;DHT22;662;48.814;9.318;2023-05-07T16:13:18;19.40;69.10
1337;DHT22;662;48.814;9.318;2023-05-07T16:15:45;19.40;68.90
1337;DHT22;662;48.814;9.318;2023-05-07T16:18:11;19.40;68.80
1337;DHT22;662;48.814;9.318;2023-05-07T16:20:40;19.40;68.70
1337;DHT22;662;48.814;9.318;2023-05-07T16:23:07;19.40;68.90
1337;DHT22;662;48.814;9.318;2023-05-07T16:25:33;19.40;69.10
1337;DHT22;662;48.814;9.318;2023-05-07T16:27:59;19.40;69.10
1337;DHT22;662;48.814;9.318;2023-05-07T16:30:24;19.30;69.10